Marble Point, Antarctica

12:05 PM GMT on January 26, 2015 (GMT +0000)
Williams Field | Change Station
CLOSE
Current Station
Airport
Location: Williams Field,
Elevation: 79 ft
Nearby Weather Stations

Elev 79 ft 77.85 °S, 166.67 °E | Updated 10 minutes ago

Partly Cloudy
Partly Cloudy
30 °F
Feels Like 22 °F
N
9
Wind Variable Wind from NNW

Today
High -- | Low -- °F
--% Chance of Precip.
Yesterday
High -- | Low -- °F
Precip. -- in
0:00 AM 0:00 AM
Waxing Crescent, 42% visible
Pressure 29.21 in
Visibility 6.2 miles
Clouds Few 2000 ft
Few 16000 ft
Windchill 22 °F
Dew Point 23 °F
Humidity 75%
Rainfall 0.00 in
Snow Depth Not available.
UV 0 out of 12
Pollen Not available.
Air Quality Not available.
Flu Activity Not available.
METAR NZCM 261155Z 34008KT 9999 FEW020 FEW160 M01/M05 A2919 RMK SLP889

More Conditions Fewer Conditions

Pressure 29.21 in
Visibility 6.2 miles
Clouds Few 2000 ft
Few 16000 ft
Windchill 22 °F
Dew Point 23 °F
Humidity 75%
Rainfall 0.00 in
Snow Depth Not available.
UV 0 out of 12
Pollen Not available.
Air Quality Not available.
Flu Activity Not available.
METAR NZCM 261155Z 34008KT 9999 FEW020 FEW160 M01/M05 A2919 RMK SLP889

More Conditions Fewer Conditions

10-Day Weather Forecast

Almanac

Astronomy

Jan. 26, 2015 Rise Set
Actual Time
Civil Twilight
Nautical Twilight
Astronomical Twilight
Moon
Length of Visible Light
Length of Day
Tomorrow will be .
, % of the Moon is Illuminated

Today's Extremes

Country Highs Country Lows

Community

WunderPhotos

Upload Photos

1,790,175 photos uploaded!

WunderBlogs® & News

Nearby

Air Quality

  Air Quality AQ Index Pollutant
Not available.

Snow Depth

Station Depth Elevation

Earthquake Activity

City Distance Mag. Time & Date
Minimum magnitude displayed is 2.5.

Coastal Water Temperatures

Place Temperature

Nearby Weather Stations